sensor_id;sensor_type;location;lat;lon;timestamp;P1;durP1;ratioP1;P2;durP2;ratioP2
27985;SDS011;15453;53.692;10.168;2022-07-29T00:01:54;3.67;;;1.40;;
27985;SDS011;15453;53.692;10.168;2022-07-29T00:04:20;3.65;;;1.20;;
27985;SDS011;15453;53.692;10.168;2022-07-29T00:06:45;2.28;;;0.95;;
27985;SDS011;15453;53.692;10.168;2022-07-29T00:09:10;2.35;;;1.15;;
27985;SDS011;15453;53.692;10.168;2022-07-29T00:11:36;3.10;;;1.00;;
27985;SDS011;15453;53.692;10.168;2022-07-29T00:14:01;3.83;;;0.95;;
27985;SDS011;15453;53.692;10.168;2022-07-29T00:16:26;1.45;;;0.70;;
27985;SDS011;15453;53.692;10.168;2022-07-29T00:18:52;2.00;;;0.80;;
27985;SDS011;15453;53.692;10.168;2022-07-29T00:21:17;2.72;;;0.85;;
27985;SDS011;15453;53.692;10.168;2022-07-29T00:23:42;1.40;;;0.90;;
27985;SDS011;15453;53.692;10.168;2022-07-29T00:26:07;2.25;;;0.88;;
27985;SDS011;15453;53.692;10.168;2022-07-29T00:28:33;3.25;;;0.90;;
27985;SDS011;15453;53.692;10.168;2022-07-29T00:30:58;2.22;;;1.30;;
27985;SDS011;15453;53.692;10.168;2022-07-29T00:33:23;1.98;;;1.10;;
27985;SDS011;15453;53.692;10.168;2022-07-29T00:35:49;2.70;;;1.10;;
27985;SDS011;15453;53.692;10.168;2022-07-29T00:38:17;2.33;;;1.23;;
27985;SDS011;15453;53.692;10.168;2022-07-29T00:40:45;1.95;;;0.80;;
27985;SDS011;15453;53.692;10.168;2022-07-29T00:43:11;3.40;;;1.10;;
27985;SDS011;15453;53.692;10.168;2022-07-29T00:45:37;4.30;;;1.10;;
27985;SDS011;15453;53.692;10.168;2022-07-29T00:48:03;2.53;;;1.00;;
27985;SDS011;15453;53.692;10.168;2022-07-29T00:50:29;1.25;;;0.70;;
27985;SDS011;15453;53.692;10.168;2022-07-29T00:52:55;2.13;;;0.85;;
27985;SDS011;15453;53.692;10.168;2022-07-29T00:55:20;2.70;;;1.10;;
27985;SDS011;15453;53.692;10.168;2022-07-29T00:57:46;3.15;;;1.10;;
27985;SDS011;15453;53.692;10.168;2022-07-29T01:00:13;2.70;;;1.20;;
27985;SDS011;15453;53.692;10.168;2022-07-29T01:02:42;2.97;;;1.20;;
27985;SDS011;15453;53.692;10.168;2022-07-29T01:05:07;1.73;;;1.00;;
27985;SDS011;15453;53.692;10.168;2022-07-29T01:07:36;2.55;;;1.10;;
27985;SDS011;15453;53.692;10.168;2022-07-29T01:10:05;3.10;;;1.30;;
27985;SDS011;15453;53.692;10.168;2022-07-29T01:12:32;2.70;;;1.30;;
27985;SDS011;15453;53.692;10.168;2022-07-29T01:14:59;2.53;;;0.90;;
27985;SDS011;15453;53.692;10.168;2022-07-29T01:23:01;3.45;;;1.25;;
27985;SDS011;15453;53.692;10.168;2022-07-29T01:30:57;2.58;;;1.00;;
27985;SDS011;15453;53.692;10.168;2022-07-29T01:33:24;2.40;;;1.25;;
27985;SDS011;15453;53.692;10.168;2022-07-29T01:36:13;4.20;;;1.65;;
27985;SDS011;15453;53.692;10.168;2022-07-29T01:38:42;2.85;;;1.45;;
27985;SDS011;15453;53.692;10.168;2022-07-29T01:41:12;3.63;;;1.40;;
27985;SDS011;15453;53.692;10.168;2022-07-29T01:43:50;4.10;;;1.30;;
27985;SDS011;15453;53.692;10.168;2022-07-29T01:46:24;4.25;;;1.35;;
27985;SDS011;15453;53.692;10.168;2022-07-29T01:48:55;3.40;;;1.20;;
27985;SDS011;15453;53.692;10.168;2022-07-29T01:51:41;3.17;;;1.52;;
27985;SDS011;15453;53.692;10.168;2022-07-29T01:54:14;2.15;;;1.40;;
27985;SDS011;15453;53.692;10.168;2022-07-29T01:56:49;2.90;;;1.75;;
27985;SDS011;15453;53.692;10.168;2022-07-29T01:59:16;4.53;;;1.45;;
27985;SDS011;15453;53.692;10.168;2022-07-29T02:01:43;3.20;;;1.30;;
27985;SDS011;15453;53.692;10.168;2022-07-29T02:04:11;3.13;;;1.13;;
27985;SDS011;15453;53.692;10.168;2022-07-29T02:06:38;2.47;;;1.30;;
27985;SDS011;15453;53.692;10.168;2022-07-29T02:09:05;2.72;;;1.25;;
27985;SDS011;15453;53.692;10.168;2022-07-29T02:11:31;1.38;;;0.90;;
27985;SDS011;15453;53.692;10.168;2022-07-29T02:13:58;1.50;;;1.13;;
27985;SDS011;15453;53.692;10.168;2022-07-29T02:16:26;4.07;;;1.48;;
27985;SDS011;15453;53.692;10.168;2022-07-29T02:18:55;3.38;;;1.42;;
27985;SDS011;15453;53.692;10.168;2022-07-29T02:21:24;3.60;;;1.15;;
27985;SDS011;15453;53.692;10.168;2022-07-29T02:23:51;2.35;;;1.25;;
27985;SDS011;15453;53.692;10.168;2022-07-29T02:26:19;2.92;;;1.55;;
27985;SDS011;15453;53.692;10.168;2022-07-29T02:28:46;4.20;;;1.50;;
27985;SDS011;15453;53.692;10.168;2022-07-29T02:31:13;3.33;;;1.45;;
27985;SDS011;15453;53.692;10.168;2022-07-29T02:33:39;2.72;;;1.42;;
27985;SDS011;15453;53.692;10.168;2022-07-29T02:36:05;3.28;;;1.45;;
27985;SDS011;15453;53.692;10.168;2022-07-29T02:38:31;3.83;;;1.30;;
27985;SDS011;15453;53.692;10.168;2022-07-29T02:41:16;3.80;;;1.45;;
27985;SDS011;15453;53.692;10.168;2022-07-29T02:43:45;3.30;;;1.63;;
27985;SDS011;15453;53.692;10.168;2022-07-29T02:46:17;3.13;;;1.50;;
27985;SDS011;15453;53.692;10.168;2022-07-29T02:48:49;3.80;;;1.30;;
27985;SDS011;15453;53.692;10.168;2022-07-29T02:51:23;3.50;;;1.33;;
27985;SDS011;15453;53.692;10.168;2022-07-29T02:53:53;3.70;;;1.63;;
27985;SDS011;15453;53.692;10.168;2022-07-29T02:56:23;3.03;;;1.52;;
27985;SDS011;15453;53.692;10.168;2022-07-29T02:58:54;2.97;;;1.55;;
27985;SDS011;15453;53.692;10.168;2022-07-29T03:01:25;4.80;;;1.83;;
27985;SDS011;15453;53.692;10.168;2022-07-29T03:03:56;2.50;;;1.45;;
27985;SDS011;15453;53.692;10.168;2022-07-29T03:06:25;3.63;;;1.83;;
27985;SDS011;15453;53.692;10.168;2022-07-29T03:08:52;3.00;;;1.50;;
27985;SDS011;15453;53.692;10.168;2022-07-29T03:11:18;4.03;;;1.77;;
27985;SDS011;15453;53.692;10.168;2022-07-29T03:13:44;4.05;;;2.05;;
27985;SDS011;15453;53.692;10.168;2022-07-29T03:16:10;4.93;;;1.80;;
27985;SDS011;15453;53.692;10.168;2022-07-29T03:18:37;6.85;;;2.08;;
27985;SDS011;15453;53.692;10.168;2022-07-29T03:21:03;3.88;;;1.75;;
27985;SDS011;15453;53.692;10.168;2022-07-29T03:23:29;3.25;;;1.67;;
27985;SDS011;15453;53.692;10.168;2022-07-29T03:25:54;3.25;;;1.83;;
27985;SDS011;15453;53.692;10.168;2022-07-29T03:28:20;5.55;;;1.80;;
27985;SDS011;15453;53.692;10.168;2022-07-29T03:30:47;5.32;;;2.38;;
27985;SDS011;15453;53.692;10.168;2022-07-29T03:33:12;4.90;;;1.90;;
27985;SDS011;15453;53.692;10.168;2022-07-29T03:35:37;4.35;;;1.90;;
27985;SDS011;15453;53.692;10.168;2022-07-29T03:38:03;4.25;;;1.73;;
27985;SDS011;15453;53.692;10.168;2022-07-29T03:40:33;4.38;;;1.92;;
27985;SDS011;15453;53.692;10.168;2022-07-29T03:43:02;4.25;;;1.40;;
27985;SDS011;15453;53.692;10.168;2022-07-29T03:45:30;4.63;;;1.75;;
27985;SDS011;15453;53.692;10.168;2022-07-29T03:47:57;4.80;;;2.15;;
27985;SDS011;15453;53.692;10.168;2022-07-29T03:50:25;5.80;;;1.83;;
27985;SDS011;15453;53.692;10.168;2022-07-29T03:52:51;6.80;;;2.20;;
27985;SDS011;15453;53.692;10.168;2022-07-29T03:55:16;5.57;;;2.28;;
27985;SDS011;15453;53.692;10.168;2022-07-29T03:57:42;4.13;;;1.83;;
27985;SDS011;15453;53.692;10.168;2022-07-29T04:00:09;3.33;;;1.80;;
27985;SDS011;15453;53.692;10.168;2022-07-29T04:02:35;3.72;;;1.88;;
27985;SDS011;15453;53.692;10.168;2022-07-29T04:05:01;3.20;;;1.80;;
27985;SDS011;15453;53.692;10.168;2022-07-29T04:07:26;6.68;;;2.10;;
27985;SDS011;15453;53.692;10.168;2022-07-29T04:09:51;3.45;;;1.60;;
27985;SDS011;15453;53.692;10.168;2022-07-29T04:12:17;4.60;;;1.90;;
27985;SDS011;15453;53.692;10.168;2022-07-29T04:14:42;5.07;;;2.00;;
27985;SDS011;15453;53.692;10.168;2022-07-29T04:17:07;3.47;;;1.83;;
27985;SDS011;15453;53.692;10.168;2022-07-29T04:19:33;3.40;;;1.48;;
27985;SDS011;15453;53.692;10.168;2022-07-29T04:21:58;5.22;;;1.70;;
27985;SDS011;15453;53.692;10.168;2022-07-29T04:24:24;6.90;;;1.92;;
27985;SDS011;15453;53.692;10.168;2022-07-29T04:26:50;7.32;;;1.75;;
27985;SDS011;15453;53.692;10.168;2022-07-29T04:29:15;4.60;;;1.75;;
27985;SDS011;15453;53.692;10.168;2022-07-29T04:31:41;6.70;;;2.03;;
27985;SDS011;15453;53.692;10.168;2022-07-29T04:34:07;3.30;;;1.83;;
27985;SDS011;15453;53.692;10.168;2022-07-29T04:36:32;5.05;;;2.15;;
27985;SDS011;15453;53.692;10.168;2022-07-29T04:38:57;5.75;;;2.30;;
27985;SDS011;15453;53.692;10.168;2022-07-29T04:41:23;3.60;;;2.15;;
27985;SDS011;15453;53.692;10.168;2022-07-29T04:43:48;6.63;;;2.15;;
27985;SDS011;15453;53.692;10.168;2022-07-29T04:46:14;3.00;;;1.75;;
27985;SDS011;15453;53.692;10.168;2022-07-29T04:48:39;4.60;;;1.90;;
27985;SDS011;15453;53.692;10.168;2022-07-29T04:51:05;3.75;;;1.70;;
27985;SDS011;15453;53.692;10.168;2022-07-29T04:53:30;3.42;;;2.03;;
27985;SDS011;15453;53.692;10.168;2022-07-29T04:55:55;4.30;;;1.90;;
27985;SDS011;15453;53.692;10.168;2022-07-29T04:58:20;6.60;;;2.30;;
27985;SDS011;15453;53.692;10.168;2022-07-29T05:00:48;4.60;;;1.83;;
27985;SDS011;15453;53.692;10.168;2022-07-29T05:03:13;4.03;;;1.88;;
27985;SDS011;15453;53.692;10.168;2022-07-29T05:05:38;3.42;;;2.08;;
27985;SDS011;15453;53.692;10.168;2022-07-29T05:08:04;5.30;;;2.08;;
27985;SDS011;15453;53.692;10.168;2022-07-29T05:10:29;4.95;;;2.20;;
27985;SDS011;15453;53.692;10.168;2022-07-29T05:12:54;4.32;;;1.88;;
27985;SDS011;15453;53.692;10.168;2022-07-29T05:15:20;3.55;;;1.80;;
27985;SDS011;15453;53.692;10.168;2022-07-29T05:17:45;5.30;;;2.22;;
27985;SDS011;15453;53.692;10.168;2022-07-29T05:20:10;4.50;;;2.10;;
27985;SDS011;15453;53.692;10.168;2022-07-29T05:22:36;9.52;;;2.50;;
27985;SDS011;15453;53.692;10.168;2022-07-29T05:25:01;3.72;;;2.10;;
27985;SDS011;15453;53.692;10.168;2022-07-29T05:27:27;5.82;;;2.03;;
27985;SDS011;15453;53.692;10.168;2022-07-29T05:29:52;4.80;;;1.95;;
27985;SDS011;15453;53.692;10.168;2022-07-29T05:32:17;4.50;;;2.15;;
27985;SDS011;15453;53.692;10.168;2022-07-29T05:34:43;6.13;;;2.28;;
27985;SDS011;15453;53.692;10.168;2022-07-29T05:37:08;4.47;;;2.22;;
27985;SDS011;15453;53.692;10.168;2022-07-29T05:39:33;6.18;;;2.10;;
27985;SDS011;15453;53.692;10.168;2022-07-29T05:41:58;4.35;;;2.00;;
27985;SDS011;15453;53.692;10.168;2022-07-29T05:44:24;3.60;;;2.35;;
27985;SDS011;15453;53.692;10.168;2022-07-29T05:46:49;4.00;;;2.20;;
27985;SDS011;15453;53.692;10.168;2022-07-29T05:49:14;5.82;;;2.10;;
27985;SDS011;15453;53.692;10.168;2022-07-29T05:51:40;9.00;;;2.58;;
27985;SDS011;15453;53.692;10.168;2022-07-29T05:54:05;4.53;;;1.77;;
27985;SDS011;15453;53.692;10.168;2022-07-29T05:56:31;4.45;;;2.20;;
27985;SDS011;15453;53.692;10.168;2022-07-29T05:58:56;3.75;;;2.22;;
27985;SDS011;15453;53.692;10.168;2022-07-29T06:01:21;3.83;;;2.30;;
27985;SDS011;15453;53.692;10.168;2022-07-29T06:03:46;3.80;;;1.80;;
27985;SDS011;15453;53.692;10.168;2022-07-29T06:06:12;3.28;;;1.90;;
27985;SDS011;15453;53.692;10.168;2022-07-29T06:08:37;5.47;;;2.28;;
27985;SDS011;15453;53.692;10.168;2022-07-29T06:11:03;5.43;;;2.30;;
27985;SDS011;15453;53.692;10.168;2022-07-29T06:13:29;5.32;;;2.40;;
27985;SDS011;15453;53.692;10.168;2022-07-29T06:15:55;5.07;;;2.25;;
27985;SDS011;15453;53.692;10.168;2022-07-29T06:18:20;5.32;;;2.17;;
27985;SDS011;15453;53.692;10.168;2022-07-29T06:20:48;5.43;;;2.08;;
27985;SDS011;15453;53.692;10.168;2022-07-29T06:23:17;6.82;;;2.60;;
27985;SDS011;15453;53.692;10.168;2022-07-29T06:25:43;10.02;;;1.98;;
27985;SDS011;15453;53.692;10.168;2022-07-29T06:28:08;4.15;;;2.00;;
27985;SDS011;15453;53.692;10.168;2022-07-29T06:30:34;4.13;;;1.98;;
27985;SDS011;15453;53.692;10.168;2022-07-29T06:32:59;5.15;;;1.80;;
27985;SDS011;15453;53.692;10.168;2022-07-29T06:35:26;4.13;;;1.70;;
27985;SDS011;15453;53.692;10.168;2022-07-29T06:37:51;5.07;;;2.15;;
27985;SDS011;15453;53.692;10.168;2022-07-29T06:40:17;4.25;;;2.13;;
27985;SDS011;15453;53.692;10.168;2022-07-29T06:43:01;4.97;;;2.10;;
27985;SDS011;15453;53.692;10.168;2022-07-29T06:45:26;3.97;;;1.70;;
27985;SDS011;15453;53.692;10.168;2022-07-29T06:47:51;6.53;;;2.25;;
27985;SDS011;15453;53.692;10.168;2022-07-29T06:50:17;4.75;;;1.73;;
27985;SDS011;15453;53.692;10.168;2022-07-29T06:52:42;4.38;;;2.10;;
27985;SDS011;15453;53.692;10.168;2022-07-29T06:55:07;5.30;;;2.00;;
27985;SDS011;15453;53.692;10.168;2022-07-29T06:57:33;5.47;;;2.42;;
27985;SDS011;15453;53.692;10.168;2022-07-29T06:59:59;5.57;;;1.95;;
27985;SDS011;15453;53.692;10.168;2022-07-29T07:02:25;6.57;;;2.03;;
27985;SDS011;15453;53.692;10.168;2022-07-29T07:04:50;4.18;;;1.90;;
27985;SDS011;15453;53.692;10.168;2022-07-29T07:07:16;4.68;;;1.80;;
27985;SDS011;15453;53.692;10.168;2022-07-29T07:09:41;3.58;;;1.73;;
27985;SDS011;15453;53.692;10.168;2022-07-29T07:12:06;8.35;;;1.95;;
27985;SDS011;15453;53.692;10.168;2022-07-29T07:14:32;5.28;;;2.22;;
27985;SDS011;15453;53.692;10.168;2022-07-29T07:16:57;5.68;;;2.67;;
27985;SDS011;15453;53.692;10.168;2022-07-29T07:19:22;3.67;;;1.77;;
27985;SDS011;15453;53.692;10.168;2022-07-29T07:21:47;2.65;;;1.50;;
27985;SDS011;15453;53.692;10.168;2022-07-29T07:24:13;2.50;;;1.63;;
27985;SDS011;15453;53.692;10.168;2022-07-29T07:26:38;6.30;;;2.38;;
27985;SDS011;15453;53.692;10.168;2022-07-29T07:29:04;6.97;;;2.10;;
27985;SDS011;15453;53.692;10.168;2022-07-29T07:31:30;4.78;;;1.95;;
27985;SDS011;15453;53.692;10.168;2022-07-29T07:33:56;3.88;;;1.83;;
27985;SDS011;15453;53.692;10.168;2022-07-29T07:36:21;4.88;;;1.52;;
27985;SDS011;15453;53.692;10.168;2022-07-29T07:38:47;7.80;;;1.90;;
27985;SDS011;15453;53.692;10.168;2022-07-29T07:41:12;8.63;;;2.10;;
27985;SDS011;15453;53.692;10.168;2022-07-29T07:43:37;3.78;;;1.80;;
27985;SDS011;15453;53.692;10.168;2022-07-29T07:46:03;4.35;;;1.85;;
27985;SDS011;15453;53.692;10.168;2022-07-29T07:48:28;4.38;;;1.65;;
27985;SDS011;15453;53.692;10.168;2022-07-29T07:50:53;7.38;;;1.90;;
27985;SDS011;15453;53.692;10.168;2022-07-29T07:53:19;4.88;;;1.85;;
27985;SDS011;15453;53.692;10.168;2022-07-29T07:55:44;5.53;;;1.92;;
27985;SDS011;15453;53.692;10.168;2022-07-29T07:58:09;7.68;;;2.00;;
27985;SDS011;15453;53.692;10.168;2022-07-29T08:00:35;6.35;;;2.15;;
27985;SDS011;15453;53.692;10.168;2022-07-29T08:03:00;4.28;;;1.60;;
27985;SDS011;15453;53.692;10.168;2022-07-29T08:05:26;6.20;;;2.10;;
27985;SDS011;15453;53.692;10.168;2022-07-29T08:07:51;5.53;;;1.90;;
27985;SDS011;15453;53.692;10.168;2022-07-29T08:10:17;5.85;;;1.80;;
27985;SDS011;15453;53.692;10.168;2022-07-29T08:13:04;6.20;;;1.70;;
27985;SDS011;15453;53.692;10.168;2022-07-29T08:15:30;3.92;;;1.60;;
27985;SDS011;15453;53.692;10.168;2022-07-29T08:17:55;6.88;;;2.08;;
27985;SDS011;15453;53.692;10.168;2022-07-29T08:20:20;5.65;;;1.83;;
27985;SDS011;15453;53.692;10.168;2022-07-29T08:22:45;4.97;;;1.80;;
27985;SDS011;15453;53.692;10.168;2022-07-29T08:25:11;3.65;;;1.70;;
27985;SDS011;15453;53.692;10.168;2022-07-29T08:27:36;4.05;;;1.70;;
27985;SDS011;15453;53.692;10.168;2022-07-29T08:30:01;5.43;;;2.35;;
27985;SDS011;15453;53.692;10.168;2022-07-29T08:32:27;5.90;;;1.70;;
27985;SDS011;15453;53.692;10.168;2022-07-29T08:34:53;3.75;;;1.92;;
27985;SDS011;15453;53.692;10.168;2022-07-29T08:37:18;3.28;;;1.73;;
27985;SDS011;15453;53.692;10.168;2022-07-29T08:39:44;5.25;;;1.88;;
27985;SDS011;15453;53.692;10.168;2022-07-29T08:42:10;3.22;;;1.60;;
27985;SDS011;15453;53.692;10.168;2022-07-29T08:44:35;4.10;;;1.58;;
27985;SDS011;15453;53.692;10.168;2022-07-29T08:47:01;7.00;;;1.92;;
27985;SDS011;15453;53.692;10.168;2022-07-29T08:49:26;4.70;;;1.90;;
27985;SDS011;15453;53.692;10.168;2022-07-29T08:51:51;8.57;;;1.80;;
27985;SDS011;15453;53.692;10.168;2022-07-29T08:54:18;6.95;;;2.30;;
27985;SDS011;15453;53.692;10.168;2022-07-29T08:56:45;5.68;;;1.80;;
27985;SDS011;15453;53.692;10.168;2022-07-29T08:59:14;6.10;;;1.83;;
27985;SDS011;15453;53.692;10.168;2022-07-29T09:01:39;4.43;;;1.90;;
27985;SDS011;15453;53.692;10.168;2022-07-29T09:04:09;2.65;;;1.45;;
27985;SDS011;15453;53.692;10.168;2022-07-29T09:06:36;4.88;;;1.88;;
27985;SDS011;15453;53.692;10.168;2022-07-29T09:09:04;3.30;;;1.50;;
27985;SDS011;15453;53.692;10.168;2022-07-29T09:11:31;5.72;;;1.90;;
27985;SDS011;15453;53.692;10.168;2022-07-29T09:13:57;4.72;;;1.85;;
27985;SDS011;15453;53.692;10.168;2022-07-29T09:16:22;3.60;;;1.85;;
27985;SDS011;15453;53.692;10.168;2022-07-29T09:18:47;4.10;;;2.05;;
27985;SDS011;15453;53.692;10.168;2022-07-29T09:21:14;3.05;;;1.38;;
27985;SDS011;15453;53.692;10.168;2022-07-29T09:24:01;3.67;;;1.60;;
27985;SDS011;15453;53.692;10.168;2022-07-29T09:26:28;3.25;;;1.60;;
27985;SDS011;15453;53.692;10.168;2022-07-29T09:28:55;4.53;;;1.80;;
27985;SDS011;15453;53.692;10.168;2022-07-29T09:31:26;3.95;;;1.63;;
27985;SDS011;15453;53.692;10.168;2022-07-29T09:33:58;3.72;;;1.60;;
27985;SDS011;15453;53.692;10.168;2022-07-29T09:36:25;4.40;;;2.00;;
27985;SDS011;15453;53.692;10.168;2022-07-29T09:38:57;3.85;;;1.40;;
27985;SDS011;15453;53.692;10.168;2022-07-29T09:41:27;3.53;;;1.38;;
27985;SDS011;15453;53.692;10.168;2022-07-29T09:43:55;3.65;;;1.58;;
27985;SDS011;15453;53.692;10.168;2022-07-29T09:46:21;4.28;;;2.00;;
27985;SDS011;15453;53.692;10.168;2022-07-29T09:49:07;5.38;;;1.60;;
27985;SDS011;15453;53.692;10.168;2022-07-29T09:51:36;5.40;;;1.67;;
27985;SDS011;15453;53.692;10.168;2022-07-29T09:54:02;4.93;;;1.48;;
27985;SDS011;15453;53.692;10.168;2022-07-29T09:56:45;5.13;;;1.45;;
27985;SDS011;15453;53.692;10.168;2022-07-29T09:59:11;3.08;;;1.40;;
27985;SDS011;15453;53.692;10.168;2022-07-29T10:01:37;2.10;;;1.30;;
27985;SDS011;15453;53.692;10.168;2022-07-29T10:04:02;3.08;;;1.50;;
27985;SDS011;15453;53.692;10.168;2022-07-29T10:06:27;4.45;;;1.63;;
27985;SDS011;15453;53.692;10.168;2022-07-29T10:08:53;4.60;;;1.73;;
27985;SDS011;15453;53.692;10.168;2022-07-29T10:11:19;4.55;;;1.40;;
27985;SDS011;15453;53.692;10.168;2022-07-29T10:13:45;3.60;;;1.58;;
27985;SDS011;15453;53.692;10.168;2022-07-29T10:16:12;12.13;;;1.70;;
27985;SDS011;15453;53.692;10.168;2022-07-29T10:18:38;4.60;;;1.60;;
27985;SDS011;15453;53.692;10.168;2022-07-29T10:21:04;4.75;;;1.50;;
27985;SDS011;15453;53.692;10.168;2022-07-29T10:23:29;2.70;;;1.15;;
27985;SDS011;15453;53.692;10.168;2022-07-29T10:25:55;3.95;;;1.30;;
27985;SDS011;15453;53.692;10.168;2022-07-29T10:28:21;6.60;;;1.67;;
27985;SDS011;15453;53.692;10.168;2022-07-29T10:30:46;5.30;;;1.50;;
27985;SDS011;15453;53.692;10.168;2022-07-29T10:41:33;4.95;;;1.52;;
27985;SDS011;15453;53.692;10.168;2022-07-29T10:44:20;3.22;;;1.20;;
27985;SDS011;15453;53.692;10.168;2022-07-29T10:46:47;5.32;;;1.60;;
27985;SDS011;15453;53.692;10.168;2022-07-29T10:49:14;6.55;;;1.50;;
27985;SDS011;15453;53.692;10.168;2022-07-29T10:54:16;3.28;;;1.38;;
27985;SDS011;15453;53.692;10.168;2022-07-29T10:56:42;3.95;;;1.35;;
27985;SDS011;15453;53.692;10.168;2022-07-29T11:01:45;5.75;;;1.30;;
27985;SDS011;15453;53.692;10.168;2022-07-29T11:04:11;4.03;;;1.67;;
27985;SDS011;15453;53.692;10.168;2022-07-29T11:09:30;4.03;;;1.50;;
27985;SDS011;15453;53.692;10.168;2022-07-29T11:11:56;7.80;;;1.80;;
27985;SDS011;15453;53.692;10.168;2022-07-29T11:17:18;5.18;;;1.50;;
27985;SDS011;15453;53.692;10.168;2022-07-29T11:19:43;3.63;;;1.42;;
27985;SDS011;15453;53.692;10.168;2022-07-29T11:22:09;5.78;;;1.40;;
27985;SDS011;15453;53.692;10.168;2022-07-29T11:24:35;3.40;;;1.70;;
27985;SDS011;15453;53.692;10.168;2022-07-29T11:27:17;4.00;;;1.45;;
27985;SDS011;15453;53.692;10.168;2022-07-29T11:29:50;3.63;;;1.45;;
27985;SDS011;15453;53.692;10.168;2022-07-29T11:32:18;3.40;;;1.65;;
27985;SDS011;15453;53.692;10.168;2022-07-29T11:34:46;6.30;;;1.58;;
27985;SDS011;15453;53.692;10.168;2022-07-29T11:39:38;3.37;;;1.30;;
27985;SDS011;15453;53.692;10.168;2022-07-29T11:44:55;7.38;;;1.40;;
27985;SDS011;15453;53.692;10.168;2022-07-29T11:47:47;3.25;;;1.20;;
27985;SDS011;15453;53.692;10.168;2022-07-29T11:50:34;4.68;;;1.77;;
27985;SDS011;15453;53.692;10.168;2022-07-29T11:53:01;6.05;;;1.55;;
27985;SDS011;15453;53.692;10.168;2022-07-29T11:55:36;10.48;;;2.00;;
27985;SDS011;15453;53.692;10.168;2022-07-29T11:58:03;5.10;;;1.63;;
27985;SDS011;15453;53.692;10.168;2022-07-29T12:00:32;4.97;;;1.97;;
27985;SDS011;15453;53.692;10.168;2022-07-29T12:03:01;3.25;;;1.17;;
27985;SDS011;15453;53.692;10.168;2022-07-29T12:05:33;5.63;;;1.50;;
27985;SDS011;15453;53.692;10.168;2022-07-29T12:08:10;3.88;;;1.52;;
27985;SDS011;15453;53.692;10.168;2022-07-29T12:10:37;5.32;;;1.20;;
27985;SDS011;15453;53.692;10.168;2022-07-29T12:13:03;4.32;;;1.48;;
27985;SDS011;15453;53.692;10.168;2022-07-29T12:15:29;2.83;;;1.20;;
27985;SDS011;15453;53.692;10.168;2022-07-29T12:17:55;5.97;;;1.45;;
27985;SDS011;15453;53.692;10.168;2022-07-29T12:20:24;4.43;;;1.77;;
27985;SDS011;15453;53.692;10.168;2022-07-29T12:22:51;14.75;;;2.03;;
27985;SDS011;15453;53.692;10.168;2022-07-29T12:25:18;6.93;;;1.30;;
27985;SDS011;15453;53.692;10.168;2022-07-29T12:27:44;2.63;;;1.50;;
27985;SDS011;15453;53.692;10.168;2022-07-29T12:30:10;3.55;;;1.65;;
27985;SDS011;15453;53.692;10.168;2022-07-29T12:32:39;2.43;;;1.60;;
27985;SDS011;15453;53.692;10.168;2022-07-29T12:35:15;6.03;;;2.38;;
27985;SDS011;15453;53.692;10.168;2022-07-29T12:37:42;5.70;;;1.40;;
27985;SDS011;15453;53.692;10.168;2022-07-29T12:40:09;5.07;;;1.45;;
27985;SDS011;15453;53.692;10.168;2022-07-29T12:42:38;5.40;;;1.30;;
27985;SDS011;15453;53.692;10.168;2022-07-29T12:45:04;6.03;;;1.85;;
27985;SDS011;15453;53.692;10.168;2022-07-29T12:47:29;4.75;;;1.42;;
27985;SDS011;15453;53.692;10.168;2022-07-29T12:50:11;5.97;;;1.80;;
27985;SDS011;15453;53.692;10.168;2022-07-29T12:52:39;8.90;;;1.50;;
27985;SDS011;15453;53.692;10.168;2022-07-29T12:55:05;6.65;;;2.00;;
27985;SDS011;15453;53.692;10.168;2022-07-29T12:57:31;10.90;;;2.13;;
27985;SDS011;15453;53.692;10.168;2022-07-29T13:02:25;4.75;;;1.50;;
27985;SDS011;15453;53.692;10.168;2022-07-29T13:04:57;3.33;;;1.83;;
27985;SDS011;15453;53.692;10.168;2022-07-29T13:07:24;6.32;;;1.85;;
27985;SDS011;15453;53.692;10.168;2022-07-29T13:09:51;7.00;;;1.35;;
27985;SDS011;15453;53.692;10.168;2022-07-29T13:12:17;4.03;;;1.45;;
27985;SDS011;15453;53.692;10.168;2022-07-29T13:14:43;4.87;;;1.37;;
27985;SDS011;15453;53.692;10.168;2022-07-29T13:17:14;4.25;;;2.00;;
27985;SDS011;15453;53.692;10.168;2022-07-29T13:19:45;4.13;;;1.65;;
27985;SDS011;15453;53.692;10.168;2022-07-29T13:22:12;4.00;;;1.60;;
27985;SDS011;15453;53.692;10.168;2022-07-29T13:24:51;4.05;;;1.50;;
27985;SDS011;15453;53.692;10.168;2022-07-29T13:27:20;2.90;;;1.30;;
27985;SDS011;15453;53.692;10.168;2022-07-29T13:29:47;4.82;;;1.48;;
27985;SDS011;15453;53.692;10.168;2022-07-29T13:32:16;4.17;;;1.60;;
27985;SDS011;15453;53.692;10.168;2022-07-29T13:34:41;4.07;;;1.73;;
27985;SDS011;15453;53.692;10.168;2022-07-29T13:37:07;4.35;;;1.48;;
27985;SDS011;15453;53.692;10.168;2022-07-29T13:39:32;5.00;;;1.53;;
27985;SDS011;15453;53.692;10.168;2022-07-29T13:41:57;4.97;;;1.67;;
27985;SDS011;15453;53.692;10.168;2022-07-29T13:44:22;4.85;;;1.65;;
27985;SDS011;15453;53.692;10.168;2022-07-29T13:46:48;3.40;;;1.83;;
27985;SDS011;15453;53.692;10.168;2022-07-29T13:49:13;7.67;;;2.00;;
27985;SDS011;15453;53.692;10.168;2022-07-29T13:51:38;5.63;;;2.00;;
27985;SDS011;15453;53.692;10.168;2022-07-29T13:54:04;8.52;;;2.05;;
27985;SDS011;15453;53.692;10.168;2022-07-29T13:56:29;6.05;;;1.48;;
27985;SDS011;15453;53.692;10.168;2022-07-29T13:58:54;7.80;;;1.80;;
27985;SDS011;15453;53.692;10.168;2022-07-29T14:01:20;4.80;;;1.73;;
27985;SDS011;15453;53.692;10.168;2022-07-29T14:03:45;5.73;;;1.57;;
27985;SDS011;15453;53.692;10.168;2022-07-29T14:06:10;3.17;;;1.77;;
27985;SDS011;15453;53.692;10.168;2022-07-29T14:08:35;8.40;;;1.70;;
27985;SDS011;15453;53.692;10.168;2022-07-29T14:11:01;5.77;;;1.53;;
27985;SDS011;15453;53.692;10.168;2022-07-29T14:13:26;5.35;;;1.60;;
27985;SDS011;15453;53.692;10.168;2022-07-29T14:15:51;5.93;;;1.92;;
27985;SDS011;15453;53.692;10.168;2022-07-29T14:18:17;5.10;;;1.60;;
27985;SDS011;15453;53.692;10.168;2022-07-29T14:20:42;2.47;;;1.23;;
27985;SDS011;15453;53.692;10.168;2022-07-29T14:23:07;4.75;;;1.70;;
27985;SDS011;15453;53.692;10.168;2022-07-29T14:25:33;5.63;;;1.80;;
27985;SDS011;15453;53.692;10.168;2022-07-29T14:27:58;2.22;;;1.27;;
27985;SDS011;15453;53.692;10.168;2022-07-29T14:30:23;4.95;;;1.67;;
27985;SDS011;15453;53.692;10.168;2022-07-29T14:32:48;4.70;;;1.70;;
27985;SDS011;15453;53.692;10.168;2022-07-29T14:35:14;5.15;;;1.27;;
27985;SDS011;15453;53.692;10.168;2022-07-29T14:37:39;3.05;;;1.35;;
27985;SDS011;15453;53.692;10.168;2022-07-29T14:40:05;3.88;;;1.30;;
27985;SDS011;15453;53.692;10.168;2022-07-29T14:42:31;5.22;;;1.77;;
27985;SDS011;15453;53.692;10.168;2022-07-29T14:44:56;4.57;;;1.55;;
27985;SDS011;15453;53.692;10.168;2022-07-29T14:47:21;3.75;;;1.50;;
27985;SDS011;15453;53.692;10.168;2022-07-29T14:49:48;3.20;;;1.50;;
27985;SDS011;15453;53.692;10.168;2022-07-29T14:52:13;5.35;;;1.35;;
27985;SDS011;15453;53.692;10.168;2022-07-29T14:54:39;3.97;;;1.53;;
27985;SDS011;15453;53.692;10.168;2022-07-29T14:57:04;12.40;;;1.45;;
27985;SDS011;15453;53.692;10.168;2022-07-29T14:59:29;6.00;;;1.90;;
27985;SDS011;15453;53.692;10.168;2022-07-29T15:01:54;5.38;;;1.48;;
27985;SDS011;15453;53.692;10.168;2022-07-29T15:04:20;4.80;;;1.67;;
27985;SDS011;15453;53.692;10.168;2022-07-29T15:06:45;5.78;;;1.27;;
27985;SDS011;15453;53.692;10.168;2022-07-29T15:09:10;4.40;;;1.63;;
27985;SDS011;15453;53.692;10.168;2022-07-29T15:11:35;8.60;;;2.42;;